createdAt,value
2017-12-30T00:01:30.950Z,99284.49
2017-12-30T00:03:58.342Z,99293.05
2017-12-30T00:06:25.735Z,99284.75
2017-12-30T00:08:53.180Z,99271.86
2017-12-30T00:11:20.566Z,99281.28
2017-12-30T00:13:47.950Z,99281.88
2017-12-30T00:16:16.138Z,99281.96
2017-12-30T00:18:43.523Z,99282.91
2017-12-30T00:21:10.918Z,99281.13
2017-12-30T00:23:38.312Z,99272.64
2017-12-30T00:26:05.678Z,99279.41
2017-12-30T00:28:33.078Z,99292.77
2017-12-30T00:31:00.470Z,99286.05
2017-12-30T00:33:27.854Z,99288.27
2017-12-30T00:35:55.238Z,99283.10
2017-12-30T00:38:22.631Z,99278.95
2017-12-30T00:40:50.003Z,99280.31
2017-12-30T00:43:17.391Z,99278.40
2017-12-30T00:45:44.773Z,99280.61
2017-12-30T00:48:12.162Z,99280.84
2017-12-30T00:50:39.623Z,99270.88
2017-12-30T00:53:06.946Z,99289.02
2017-12-30T00:55:34.326Z,99277.41
2017-12-30T00:58:01.714Z,99276.94
2017-12-30T01:00:29.105Z,99273.83
2017-12-30T01:02:56.486Z,99279.61
2017-12-30T01:05:23.875Z,99288.08
2017-12-30T01:07:51.253Z,99289.69
2017-12-30T01:10:18.646Z,99284.64
2017-12-30T01:12:46.024Z,99286.17
2017-12-30T01:15:13.413Z,99292.03
2017-12-30T01:17:40.799Z,99288.83
2017-12-30T01:20:08.188Z,99289.84
2017-12-30T01:22:35.562Z,99289.72
2017-12-30T01:25:02.954Z,99290.45
2017-12-30T01:27:30.434Z,99286.77
2017-12-30T01:29:58.016Z,99296.02
2017-12-30T01:32:25.508Z,99286.04
2017-12-30T01:34:52.901Z,99289.33
2017-12-30T01:37:20.299Z,99284.87
2017-12-30T01:39:47.693Z,99287.80
2017-12-30T01:42:15.094Z,99284.00
2017-12-30T01:44:42.493Z,99267.55
2017-12-30T01:47:09.881Z,99266.30
2017-12-30T01:49:37.277Z,99275.02
2017-12-30T01:52:04.668Z,99270.70
2017-12-30T01:54:32.072Z,99273.27
2017-12-30T01:56:59.455Z,99277.48
2017-12-30T01:59:26.846Z,99271.55
2017-12-30T02:01:54.239Z,99276.54
2017-12-30T02:04:21.641Z,99271.31
2017-12-30T02:06:49.035Z,99268.02
2017-12-30T02:09:16.431Z,99278.03
2017-12-30T02:11:43.826Z,99268.33
2017-12-30T02:14:11.226Z,99263.91
2017-12-30T02:16:38.622Z,99264.47
2017-12-30T02:19:06.060Z,99255.05
2017-12-30T02:21:33.451Z,99254.09
2017-12-30T02:24:00.880Z,99247.75
2017-12-30T02:26:28.270Z,99241.39
2017-12-30T02:28:55.662Z,99234.73
2017-12-30T02:31:23.056Z,99237.34
2017-12-30T02:33:50.454Z,99234.88
2017-12-30T02:36:17.850Z,99239.30
2017-12-30T02:38:45.254Z,99243.59
2017-12-30T02:41:12.647Z,99241.45
2017-12-30T02:43:40.044Z,99242.44
2017-12-30T02:46:07.438Z,99240.11
2017-12-30T02:48:34.910Z,99240.98
2017-12-30T02:51:02.310Z,99230.47
2017-12-30T02:53:29.706Z,99231.77
2017-12-30T02:55:57.087Z,99231.03
2017-12-30T02:58:24.590Z,99229.64
2017-12-30T03:00:51.977Z,99217.17
2017-12-30T03:03:19.374Z,99226.36
2017-12-30T03:05:46.774Z,99226.16
2017-12-30T03:08:14.169Z,99227.19
2017-12-30T03:10:41.668Z,99224.37
2017-12-30T03:13:09.058Z,99215.61
2017-12-30T03:15:36.462Z,99222.98
2017-12-30T03:18:03.854Z,99220.06
2017-12-30T03:20:31.252Z,99221.20
2017-12-30T03:22:58.647Z,99217.66
2017-12-30T03:25:26.050Z,99220.09
2017-12-30T03:27:53.439Z,99205.60
2017-12-30T03:30:20.839Z,99213.69
2017-12-30T03:32:48.231Z,99207.59
2017-12-30T03:35:15.630Z,99201.19
2017-12-30T03:37:43.019Z,99204.80
2017-12-30T03:40:10.412Z,99197.53
2017-12-30T03:42:37.810Z,99207.73
2017-12-30T03:45:05.234Z,99214.27
2017-12-30T03:47:32.697Z,99213.48
2017-12-30T03:50:00.098Z,99215.27
2017-12-30T03:52:27.494Z,99212.75
2017-12-30T03:54:54.887Z,99214.60
2017-12-30T03:57:22.282Z,99212.41
2017-12-30T03:59:49.680Z,99214.69
2017-12-30T04:02:17.077Z,99217.52
2017-12-30T04:04:44.474Z,99219.00
2017-12-30T04:07:11.871Z,99220.01
2017-12-30T04:09:39.271Z,99220.66
2017-12-30T04:12:06.658Z,99210.42
2017-12-30T04:14:34.059Z,99193.53
2017-12-30T04:17:01.446Z,99202.34
2017-12-30T04:19:28.834Z,99215.09
2017-12-30T04:21:56.231Z,99225.36
2017-12-30T04:24:23.637Z,99226.33
2017-12-30T04:29:24.958Z,99220.79
2017-12-30T04:31:52.354Z,99227.89
2017-12-30T04:34:19.751Z,99223.27
2017-12-30T04:36:47.152Z,99231.95
2017-12-30T04:39:14.554Z,99229.73
2017-12-30T04:41:41.948Z,99234.17
2017-12-30T04:44:09.338Z,99236.30
2017-12-30T04:46:36.729Z,99244.14
2017-12-30T04:49:04.226Z,99243.78
2017-12-30T04:51:31.613Z,99249.30
2017-12-30T04:53:59.014Z,99245.52
2017-12-30T04:56:26.400Z,99249.98
2017-12-30T04:58:53.798Z,99248.09
2017-12-30T05:01:21.177Z,99251.92
2017-12-30T05:03:48.582Z,99250.53
2017-12-30T05:06:15.986Z,99251.19
2017-12-30T05:08:43.378Z,99249.31
2017-12-30T05:11:10.766Z,99249.88
2017-12-30T05:13:38.165Z,99254.64
2017-12-30T05:16:05.557Z,99247.64
2017-12-30T05:18:32.955Z,99253.25
2017-12-30T05:21:00.354Z,99251.55
2017-12-30T05:23:27.748Z,99242.38
2017-12-30T05:25:55.142Z,99238.50
2017-12-30T05:28:22.529Z,99243.50
2017-12-30T05:30:49.927Z,99247.53
2017-12-30T05:33:17.326Z,99254.27
2017-12-30T05:35:44.727Z,99246.84
2017-12-30T05:38:12.223Z,99253.42
2017-12-30T05:40:39.682Z,99252.19
2017-12-30T05:43:07.073Z,99249.67
2017-12-30T05:45:34.466Z,99244.30
2017-12-30T05:48:01.851Z,99241.45
2017-12-30T05:50:29.259Z,99242.66
2017-12-30T05:52:56.647Z,99243.80
2017-12-30T05:55:24.034Z,99234.95
2017-12-30T05:57:51.429Z,99231.73
2017-12-30T06:00:18.824Z,99225.19
2017-12-30T06:02:46.270Z,99226.50
2017-12-30T06:05:13.660Z,99226.44
2017-12-30T06:07:41.043Z,99227.69
2017-12-30T06:10:08.554Z,99222.12
2017-12-30T06:12:35.942Z,99231.87
2017-12-30T06:15:03.329Z,99220.20
2017-12-30T06:17:30.716Z,99205.91
2017-12-30T06:19:58.111Z,99216.43
2017-12-30T06:22:25.490Z,99217.11
2017-12-30T06:24:52.891Z,99212.67
2017-12-30T06:27:20.274Z,99225.84
2017-12-30T06:29:47.670Z,99216.75
2017-12-30T06:32:15.054Z,99217.02
2017-12-30T06:34:42.451Z,99217.29
2017-12-30T06:37:09.837Z,99219.25
2017-12-30T06:39:37.231Z,99223.20
2017-12-30T06:42:04.623Z,99223.53
2017-12-30T06:44:32.010Z,99222.99
2017-12-30T06:46:59.398Z,99230.11
2017-12-30T06:49:26.795Z,99231.28
2017-12-30T06:51:54.183Z,99229.94
2017-12-30T06:54:21.578Z,99230.56
2017-12-30T06:56:48.959Z,99223.92
2017-12-30T06:59:16.354Z,99235.91
2017-12-30T07:01:43.729Z,99235.50
2017-12-30T07:04:11.152Z,99236.86
2017-12-30T07:06:38.558Z,99238.95
2017-12-30T07:09:05.953Z,99238.20
2017-12-30T07:11:33.339Z,99241.03
2017-12-30T07:14:00.758Z,99236.81
2017-12-30T07:16:28.151Z,99228.57
2017-12-30T07:18:55.569Z,99235.94
2017-12-30T07:21:22.970Z,99233.65
2017-12-30T07:23:50.363Z,99236.06
2017-12-30T07:26:17.791Z,99236.63
2017-12-30T07:28:45.159Z,99227.11
2017-12-30T07:31:12.559Z,99228.97
2017-12-30T07:33:39.945Z,99226.63
2017-12-30T07:36:07.337Z,99231.02
2017-12-30T07:38:34.723Z,99223.50
2017-12-30T07:41:02.118Z,99210.58
2017-12-30T07:43:29.542Z,99205.75
2017-12-30T07:45:56.930Z,99200.93
2017-12-30T07:48:24.318Z,99190.27
2017-12-30T07:50:51.705Z,99182.57
2017-12-30T07:53:19.127Z,99176.91
2017-12-30T07:55:46.511Z,99171.27
2017-12-30T07:58:13.903Z,99174.63
2017-12-30T08:00:41.298Z,99172.92
2017-12-30T08:03:08.691Z,99166.47
2017-12-30T08:05:36.081Z,99168.23
2017-12-30T08:08:03.467Z,99162.78
2017-12-30T08:10:30.865Z,99152.43
2017-12-30T08:12:58.287Z,99150.84
2017-12-30T08:15:28.997Z,99157.66
2017-12-30T08:17:56.853Z,99152.95
2017-12-30T08:20:24.264Z,99158.16
2017-12-30T08:22:51.662Z,99155.00
2017-12-30T08:25:19.050Z,99157.39
2017-12-30T08:27:46.439Z,99151.10
2017-12-30T08:30:13.830Z,99143.90
2017-12-30T08:32:41.227Z,99137.57
2017-12-30T08:35:08.634Z,99135.36
2017-12-30T08:37:36.014Z,99129.38
2017-12-30T08:40:03.418Z,99121.94
2017-12-30T08:42:30.800Z,99119.88
2017-12-30T08:44:58.198Z,99114.91
2017-12-30T08:47:25.582Z,99113.05
2017-12-30T08:49:52.979Z,99102.59
2017-12-30T08:52:20.365Z,99101.48
2017-12-30T08:54:47.758Z,99104.40
2017-12-30T08:57:15.138Z,99098.52
2017-12-30T08:59:42.526Z,99095.37
2017-12-30T09:02:09.919Z,99092.50
2017-12-30T09:04:37.374Z,99087.94
2017-12-30T09:07:04.767Z,99087.03
2017-12-30T09:09:32.159Z,99086.72
2017-12-30T09:11:59.542Z,99078.37
2017-12-30T09:14:26.934Z,99077.80
2017-12-30T09:16:54.314Z,99081.16
2017-12-30T09:19:21.707Z,99070.50
2017-12-30T09:21:49.087Z,99070.42
2017-12-30T09:24:16.470Z,99083.39
2017-12-30T09:26:44.006Z,99074.39
2017-12-30T09:29:12.077Z,99072.69
2017-12-30T09:31:39.471Z,99072.98
2017-12-30T09:34:06.855Z,99071.98
2017-12-30T09:36:34.237Z,99065.38
2017-12-30T09:39:01.715Z,99061.00
2017-12-30T09:41:29.112Z,99064.64
2017-12-30T09:43:56.503Z,99064.90
2017-12-30T09:46:23.898Z,99062.81
2017-12-30T09:48:51.275Z,99059.77
2017-12-30T09:51:18.670Z,99055.52
2017-12-30T09:53:46.157Z,99045.72
2017-12-30T09:56:13.572Z,99036.36
2017-12-30T09:58:40.945Z,99030.40
2017-12-30T10:01:08.383Z,99032.38
2017-12-30T10:03:35.782Z,99029.50
2017-12-30T10:06:03.170Z,99016.86
2017-12-30T10:08:30.574Z,98999.10
2017-12-30T10:10:57.958Z,98990.98
2017-12-30T10:13:25.345Z,98994.44
2017-12-30T10:15:52.755Z,98990.98
2017-12-30T10:18:20.133Z,98980.78
2017-12-30T10:20:47.541Z,98970.52
2017-12-30T10:23:14.923Z,98967.23
2017-12-30T10:25:42.321Z,98952.56
2017-12-30T10:28:09.706Z,98943.53
2017-12-30T10:30:37.091Z,98929.53
2017-12-30T10:33:04.476Z,98919.04
2017-12-30T10:35:31.858Z,98917.97
2017-12-30T10:37:59.248Z,98908.39
2017-12-30T10:40:26.691Z,98881.11
2017-12-30T10:42:54.078Z,98875.05
2017-12-30T10:45:21.493Z,98881.73
2017-12-30T10:47:48.864Z,98871.37
2017-12-30T10:50:16.250Z,98867.39
2017-12-30T10:52:43.634Z,98856.34
2017-12-30T10:55:11.054Z,98846.29
2017-12-30T10:57:38.417Z,98834.88
2017-12-30T11:00:05.860Z,98824.10
2017-12-30T11:02:33.243Z,98815.42
2017-12-30T11:05:00.645Z,98820.26
2017-12-30T11:07:28.034Z,98805.57
2017-12-30T11:09:55.431Z,98793.69
2017-12-30T11:12:22.829Z,98783.34
2017-12-30T11:14:50.218Z,98774.53
2017-12-30T11:17:17.606Z,98771.19
2017-12-30T11:19:44.987Z,98763.12
2017-12-30T11:22:12.390Z,98760.03
2017-12-30T11:24:39.778Z,98744.86
2017-12-30T11:27:07.179Z,98750.11
2017-12-30T11:29:34.552Z,98730.86
2017-12-30T11:32:01.952Z,98730.94
2017-12-30T11:34:29.330Z,98726.79
2017-12-30T11:36:56.714Z,98717.61
2017-12-30T11:39:24.089Z,98716.78
2017-12-30T11:41:51.475Z,98710.97
2017-12-30T11:44:18.862Z,98708.50
2017-12-30T11:46:46.258Z,98698.86
2017-12-30T11:49:13.639Z,98693.78
2017-12-30T11:51:41.021Z,98698.59
2017-12-30T11:54:08.414Z,98684.91
2017-12-30T11:56:35.896Z,98672.34
2017-12-30T11:59:03.286Z,98656.58
2017-12-30T12:01:31.484Z,98652.83
2017-12-30T12:03:58.846Z,98652.29
2017-12-30T12:06:26.239Z,98652.55
2017-12-30T12:08:53.618Z,98647.86
2017-12-30T12:11:21.145Z,98645.53
2017-12-30T12:13:48.526Z,98634.05
2017-12-30T12:16:15.918Z,98635.46
2017-12-30T12:18:43.317Z,98606.38
2017-12-30T12:21:10.689Z,98595.95
2017-12-30T12:23:38.070Z,98589.41
2017-12-30T12:26:05.479Z,98599.87
2017-12-30T12:28:32.849Z,98597.42
2017-12-30T12:31:00.250Z,98595.80
2017-12-30T12:33:27.633Z,98586.95
2017-12-30T12:35:55.026Z,98572.41
2017-12-30T12:38:22.413Z,98566.89
2017-12-30T12:40:49.786Z,98573.42
2017-12-30T12:43:17.174Z,98560.73
2017-12-30T12:45:44.558Z,98544.86
2017-12-30T12:48:11.950Z,98549.86
2017-12-30T12:50:39.340Z,98562.65
2017-12-30T12:53:06.735Z,98566.89
2017-12-30T12:55:34.115Z,98557.32
2017-12-30T12:58:01.601Z,98531.34
2017-12-30T13:00:28.978Z,98516.45
2017-12-30T13:02:56.362Z,98523.14
2017-12-30T13:05:23.746Z,98537.00
2017-12-30T13:07:51.143Z,98542.32
2017-12-30T13:10:18.538Z,98537.62
2017-12-30T13:12:45.926Z,98544.19
2017-12-30T13:15:13.307Z,98553.37
2017-12-30T13:17:40.697Z,98537.41
2017-12-30T13:20:09.050Z,98520.34
2017-12-30T13:22:36.435Z,98497.48
2017-12-30T13:25:03.826Z,98505.93
2017-12-30T13:27:31.213Z,98512.55
2017-12-30T13:29:58.606Z,98545.34
2017-12-30T13:32:25.994Z,98543.38
2017-12-30T13:34:53.373Z,98556.09
2017-12-30T13:37:20.767Z,98555.90
2017-12-30T13:39:48.166Z,98541.25
2017-12-30T13:42:15.556Z,98520.97
2017-12-30T13:44:42.930Z,98501.25
2017-12-30T13:47:10.444Z,98482.22
2017-12-30T13:49:37.819Z,98489.39
2017-12-30T13:52:05.311Z,98550.50
2017-12-30T13:54:32.693Z,98544.94
2017-12-30T13:57:00.082Z,98538.73
2017-12-30T13:59:27.468Z,98526.42
2017-12-30T14:01:54.855Z,98534.19
2017-12-30T14:04:22.234Z,98560.23
2017-12-30T14:06:49.777Z,98542.28
2017-12-30T14:09:17.142Z,98528.41
2017-12-30T14:11:44.531Z,98530.93
2017-12-30T14:14:11.911Z,98536.14
2017-12-30T14:16:39.301Z,98528.65
2017-12-30T14:19:06.686Z,98525.55
2017-12-30T14:21:34.079Z,98522.72
2017-12-30T14:24:01.462Z,98513.79
2017-12-30T14:26:28.891Z,98530.57
2017-12-30T14:28:56.287Z,98551.25
2017-12-30T14:31:23.666Z,98536.76
2017-12-30T14:33:51.057Z,98533.74
2017-12-30T14:36:18.441Z,98531.17
2017-12-30T14:38:45.830Z,98543.33
2017-12-30T14:41:13.225Z,98546.27
2017-12-30T14:43:40.602Z,98546.64
2017-12-30T14:46:08.023Z,98543.39
2017-12-30T14:48:35.402Z,98537.44
2017-12-30T14:51:02.788Z,98529.92
2017-12-30T14:53:30.174Z,98537.96
2017-12-30T14:55:57.562Z,98548.39
2017-12-30T14:58:24.957Z,98551.58
2017-12-30T15:00:52.343Z,98550.12
2017-12-30T15:03:19.730Z,98549.23
2017-12-30T15:05:47.110Z,98556.67
2017-12-30T15:08:14.498Z,98560.98
2017-12-30T15:10:41.886Z,98565.58
2017-12-30T15:13:09.273Z,98544.41
2017-12-30T15:15:36.662Z,98537.09
2017-12-30T15:18:04.061Z,98546.46
2017-12-30T15:20:31.458Z,98539.84
2017-12-30T15:22:58.872Z,98547.99
2017-12-30T15:25:26.254Z,98556.13
2017-12-30T15:27:53.650Z,98565.71
2017-12-30T15:30:21.114Z,98563.80
2017-12-30T15:32:48.535Z,98567.30
2017-12-30T15:35:16.033Z,98566.09
2017-12-30T15:37:43.422Z,98570.11
2017-12-30T15:40:10.811Z,98581.27
2017-12-30T15:42:38.206Z,98573.88
2017-12-30T15:45:05.610Z,98572.42
2017-12-30T15:47:33.001Z,98570.64
2017-12-30T15:50:00.398Z,98583.63
2017-12-30T15:52:27.794Z,98577.95
2017-12-30T15:54:55.181Z,98580.67
2017-12-30T15:57:22.579Z,98585.31
2017-12-30T15:59:49.968Z,98586.22
2017-12-30T16:02:17.399Z,98594.69
2017-12-30T16:04:44.802Z,98588.59
2017-12-30T16:07:12.194Z,98590.89
2017-12-30T16:09:39.596Z,98599.34
2017-12-30T16:12:07.051Z,98598.59
2017-12-30T16:14:34.438Z,98609.55
2017-12-30T16:17:01.829Z,98598.11
2017-12-30T16:19:29.313Z,98611.91
2017-12-30T16:21:56.724Z,98615.78
2017-12-30T16:24:24.104Z,98609.19
2017-12-30T16:26:51.510Z,98602.11
2017-12-30T16:29:18.908Z,98618.62
2017-12-30T16:31:46.305Z,98622.91
2017-12-30T16:34:13.682Z,98642.90
2017-12-30T16:36:41.111Z,98643.39
2017-12-30T16:39:08.498Z,98656.98
2017-12-30T16:41:35.919Z,98665.52
2017-12-30T16:44:03.309Z,98657.89
2017-12-30T16:46:30.698Z,98657.61
2017-12-30T16:48:58.099Z,98671.91
2017-12-30T16:51:25.486Z,98690.78
2017-12-30T16:53:52.876Z,98693.22
2017-12-30T16:56:20.263Z,98688.23
2017-12-30T16:58:47.653Z,98672.60
2017-12-30T17:01:15.035Z,98683.00
2017-12-30T17:03:42.514Z,98698.28
2017-12-30T17:06:09.917Z,98692.44
2017-12-30T17:08:37.310Z,98705.63
2017-12-30T17:11:04.704Z,98708.96
2017-12-30T17:13:32.094Z,98702.03
2017-12-30T17:15:59.489Z,98710.20
2017-12-30T17:18:26.915Z,98720.63
2017-12-30T17:20:54.288Z,98722.64
2017-12-30T17:23:21.754Z,98730.07
2017-12-30T17:25:49.215Z,98740.83
2017-12-30T17:28:16.610Z,98747.42
2017-12-30T17:30:44.008Z,98748.45
2017-12-30T17:33:11.449Z,98740.36
2017-12-30T17:35:38.846Z,98751.54
2017-12-30T17:38:06.250Z,98760.08
2017-12-30T17:40:33.635Z,98737.59
2017-12-30T17:43:01.038Z,98747.30
2017-12-30T17:45:28.426Z,98751.82
2017-12-30T17:47:55.819Z,98742.30
2017-12-30T17:50:23.210Z,98752.56
2017-12-30T17:52:50.640Z,98752.98
2017-12-30T17:55:18.124Z,98771.91
2017-12-30T17:57:45.510Z,98782.52
2017-12-30T18:00:12.901Z,98793.49
2017-12-30T18:02:40.294Z,98796.50
2017-12-30T18:05:07.689Z,98798.36
2017-12-30T18:07:35.070Z,98791.05
2017-12-30T18:10:02.473Z,98795.56
2017-12-30T18:12:29.871Z,98790.44
2017-12-30T18:14:57.299Z,98803.38
2017-12-30T18:17:24.694Z,98813.03
2017-12-30T18:19:52.090Z,98807.72
2017-12-30T18:22:19.475Z,98804.05
2017-12-30T18:24:46.874Z,98805.28
2017-12-30T18:27:14.268Z,98827.02
2017-12-30T18:29:41.706Z,98825.00
2017-12-30T18:32:09.053Z,98822.08
2017-12-30T18:34:36.452Z,98821.88
2017-12-30T18:37:03.840Z,98821.13
2017-12-30T18:39:31.230Z,98823.69
2017-12-30T18:41:58.626Z,98833.58
2017-12-30T18:44:26.022Z,98834.20
2017-12-30T18:46:53.527Z,98810.73
2017-12-30T18:49:20.930Z,98828.88
2017-12-30T18:51:48.324Z,98819.22
2017-12-30T18:54:15.725Z,98823.93
2017-12-30T18:56:43.113Z,98832.47
2017-12-30T18:59:10.504Z,98825.45
2017-12-30T19:01:37.922Z,98842.73
2017-12-30T19:04:06.276Z,98849.30
2017-12-30T19:06:33.657Z,98855.52
2017-12-30T19:09:01.057Z,98871.86
2017-12-30T19:11:28.447Z,98858.45
2017-12-30T19:13:55.938Z,98868.47
2017-12-30T19:16:23.325Z,98873.42
2017-12-30T19:18:50.763Z,98873.55
2017-12-30T19:21:18.146Z,98881.38
2017-12-30T19:23:45.552Z,98883.89
2017-12-30T19:26:12.943Z,98891.75
2017-12-30T19:28:40.346Z,98900.56
2017-12-30T19:31:07.738Z,98899.79
2017-12-30T19:33:35.136Z,98915.02
2017-12-30T19:36:02.559Z,98925.70
2017-12-30T19:38:29.942Z,98927.91
2017-12-30T19:40:57.360Z,98941.06
2017-12-30T19:43:24.755Z,98936.83
2017-12-30T19:45:52.150Z,98931.12
2017-12-30T19:48:19.538Z,98933.81
2017-12-30T19:50:46.975Z,98929.88
2017-12-30T19:53:14.371Z,98934.25
2017-12-30T19:55:41.770Z,98944.77
2017-12-30T19:58:09.150Z,98954.67
2017-12-30T20:00:36.559Z,98964.70
2017-12-30T20:03:03.946Z,98972.78
2017-12-30T20:05:31.397Z,98967.61
2017-12-30T20:07:58.786Z,98969.67
2017-12-30T20:10:26.180Z,98973.01
2017-12-30T20:12:53.567Z,98959.23
2017-12-30T20:15:20.954Z,98975.35
2017-12-30T20:17:48.344Z,98998.58
2017-12-30T20:20:15.737Z,99002.56
2017-12-30T20:22:43.114Z,99014.00
2017-12-30T20:25:10.510Z,99009.94
2017-12-30T20:27:37.892Z,99007.03
2017-12-30T20:30:05.290Z,99007.71
2017-12-30T20:32:32.674Z,99015.88
2017-12-30T20:35:00.114Z,99019.09
2017-12-30T20:37:27.506Z,99024.13
2017-12-30T20:39:54.986Z,99025.14
2017-12-30T20:42:22.370Z,99032.14
2017-12-30T20:44:50.530Z,99047.85
2017-12-30T20:47:17.918Z,99059.70
2017-12-30T20:49:45.300Z,99068.38
2017-12-30T20:52:12.780Z,99069.20
2017-12-30T20:54:40.162Z,99060.66
2017-12-30T20:57:07.550Z,99060.62
2017-12-30T20:59:34.950Z,99065.55
2017-12-30T21:02:02.351Z,99074.25
2017-12-30T21:04:29.744Z,99069.25
2017-12-30T21:06:57.134Z,99080.80
2017-12-30T21:09:24.530Z,99077.65
2017-12-30T21:11:51.923Z,99070.91
2017-12-30T21:14:19.314Z,99080.40
2017-12-30T21:16:46.706Z,99085.52
2017-12-30T21:19:14.102Z,99098.13
2017-12-30T21:21:41.494Z,99096.56
2017-12-30T21:24:08.887Z,99091.59
2017-12-30T21:26:36.271Z,99086.05
2017-12-30T21:29:03.668Z,99114.48
2017-12-30T21:31:31.054Z,99130.00
2017-12-30T21:33:58.483Z,99143.40
2017-12-30T21:36:25.958Z,99146.63
2017-12-30T21:38:53.350Z,99148.52
2017-12-30T21:41:20.730Z,99164.29
2017-12-30T21:43:48.131Z,99176.94
2017-12-30T21:46:15.518Z,99185.61
2017-12-30T21:48:42.909Z,99195.16
2017-12-30T21:51:10.304Z,99203.39
2017-12-30T21:53:37.738Z,99218.86
2017-12-30T21:56:05.136Z,99225.56
2017-12-30T21:58:32.522Z,99229.86
2017-12-30T22:01:00.690Z,99242.92
2017-12-30T22:03:28.094Z,99254.91
2017-12-30T22:05:55.486Z,99262.67
2017-12-30T22:08:22.870Z,99257.97
2017-12-30T22:10:50.265Z,99266.15
2017-12-30T22:13:17.644Z,99276.03
2017-12-30T22:15:45.044Z,99277.45
2017-12-30T22:18:12.450Z,99281.40
2017-12-30T22:20:39.895Z,99278.77
2017-12-30T22:23:07.294Z,99282.30
2017-12-30T22:25:34.699Z,99301.56
2017-12-30T22:28:02.086Z,99314.24
2017-12-30T22:30:29.477Z,99324.53
2017-12-30T22:32:56.885Z,99335.12
2017-12-30T22:35:24.274Z,99342.86
2017-12-30T22:37:51.654Z,99344.17
2017-12-30T22:40:19.051Z,99343.03
2017-12-30T22:42:46.432Z,99348.96
2017-12-30T22:45:13.826Z,99355.69
2017-12-30T22:47:41.211Z,99366.13
2017-12-30T22:50:08.605Z,99368.52
2017-12-30T22:52:35.996Z,99382.28
2017-12-30T22:55:03.411Z,99390.27
2017-12-30T22:57:30.794Z,99395.05
2017-12-30T22:59:58.183Z,99389.45
2017-12-30T23:02:25.576Z,99388.29
2017-12-30T23:04:52.966Z,99391.03
2017-12-30T23:07:20.362Z,99394.41
2017-12-30T23:09:47.767Z,99407.52
2017-12-30T23:12:15.147Z,99412.14
2017-12-30T23:14:42.541Z,99410.34
2017-12-30T23:17:09.914Z,99419.55
2017-12-30T23:19:37.309Z,99432.45
2017-12-30T23:22:04.693Z,99419.64
2017-12-30T23:24:32.098Z,99424.00
2017-12-30T23:26:59.470Z,99426.28
2017-12-30T23:29:26.873Z,99428.48
2017-12-30T23:31:54.250Z,99427.75
2017-12-30T23:34:21.655Z,99438.88
2017-12-30T23:36:49.060Z,99437.06
2017-12-30T23:39:16.449Z,99447.48
2017-12-30T23:41:43.829Z,99452.14
2017-12-30T23:44:11.223Z,99456.84
2017-12-30T23:46:38.617Z,99469.19
2017-12-30T23:49:06.037Z,99469.10
2017-12-30T23:51:33.452Z,99448.77
2017-12-30T23:54:00.799Z,99461.86
2017-12-30T23:56:28.180Z,99458.68
2017-12-30T23:58:55.566Z,99475.69
